createdAt,value
2017-11-29T00:03:38.554Z,4.70
2017-11-29T00:08:41.140Z,4.70
2017-11-29T00:13:43.735Z,3.70
2017-11-29T00:18:46.351Z,4.87
2017-11-29T00:23:49.587Z,3.00
2017-11-29T00:28:52.184Z,3.87
2017-11-29T00:33:54.757Z,3.43
2017-11-29T00:38:58.307Z,3.70
2017-11-29T00:44:00.927Z,5.10
2017-11-29T00:49:03.889Z,3.90
2017-11-29T00:54:06.477Z,4.17
2017-11-29T00:59:09.812Z,4.77
2017-11-29T01:04:12.504Z,3.73
2017-11-29T01:09:15.080Z,3.97
2017-11-29T01:14:17.759Z,3.83
2017-11-29T01:19:20.504Z,5.60
2017-11-29T01:24:23.120Z,5.30
2017-11-29T01:29:25.739Z,3.60
2017-11-29T01:34:28.334Z,9.03
2017-11-29T01:39:31.097Z,3.40
2017-11-29T01:44:33.700Z,4.33
2017-11-29T01:49:36.290Z,3.93
2017-11-29T01:54:39.521Z,3.27
2017-11-29T01:59:42.142Z,4.07
2017-11-29T02:04:45.508Z,3.63
2017-11-29T02:09:48.120Z,4.53
2017-11-29T02:14:50.775Z,4.10
2017-11-29T02:19:53.396Z,4.60
2017-11-29T02:24:55.991Z,3.93
2017-11-29T02:29:58.628Z,5.50
2017-11-29T02:35:01.296Z,4.53
2017-11-29T02:40:15.782Z,4.30
2017-11-29T02:45:18.393Z,5.03
2017-11-29T02:50:20.970Z,8.00
2017-11-29T02:55:23.738Z,3.70
2017-11-29T03:00:26.378Z,5.87
2017-11-29T03:05:28.946Z,4.70
2017-11-29T03:10:31.548Z,4.00
2017-11-29T03:15:34.116Z,3.60
2017-11-29T03:20:36.679Z,4.83
2017-11-29T03:25:40.082Z,4.40
2017-11-29T03:30:42.648Z,3.90
2017-11-29T03:35:45.208Z,5.90
2017-11-29T03:40:48.560Z,3.23
2017-11-29T03:45:51.134Z,5.77
2017-11-29T03:50:53.754Z,3.53
2017-11-29T03:55:56.349Z,3.70
2017-11-29T04:00:58.951Z,5.17
2017-11-29T04:06:01.562Z,3.30
2017-11-29T04:11:04.143Z,3.93
2017-11-29T04:16:06.737Z,3.53
2017-11-29T04:21:09.748Z,4.23
2017-11-29T04:26:12.352Z,5.70
2017-11-29T04:31:14.947Z,3.90
2017-11-29T04:36:17.529Z,3.70
2017-11-29T04:41:20.139Z,3.40
2017-11-29T04:46:22.713Z,3.70
2017-11-29T04:51:25.298Z,7.67
2017-11-29T04:56:27.881Z,5.27
2017-11-29T05:01:30.458Z,7.10
2017-11-29T05:06:33.053Z,5.70
2017-11-29T05:11:35.848Z,3.30
2017-11-29T05:16:38.448Z,4.47
2017-11-29T05:21:41.021Z,6.30
2017-11-29T05:26:44.401Z,3.90
2017-11-29T05:31:46.977Z,4.03
2017-11-29T05:36:49.629Z,4.23
2017-11-29T05:41:52.227Z,3.60
2017-11-29T05:46:54.844Z,4.00
2017-11-29T05:51:57.467Z,4.87
2017-11-29T05:57:00.121Z,3.53
2017-11-29T06:02:02.710Z,6.17
2017-11-29T06:07:05.329Z,4.23
2017-11-29T06:12:07.997Z,6.37
2017-11-29T06:17:10.694Z,3.50
2017-11-29T06:22:13.345Z,3.70
2017-11-29T06:27:15.940Z,3.47
2017-11-29T06:32:18.537Z,4.80
2017-11-29T06:37:21.109Z,4.37
2017-11-29T06:42:23.717Z,3.03
2017-11-29T06:47:26.298Z,3.33
2017-11-29T06:52:28.907Z,7.57
2017-11-29T06:57:31.544Z,3.40
2017-11-29T07:02:34.258Z,3.00
2017-11-29T07:07:37.217Z,4.40
2017-11-29T07:12:39.883Z,4.00
2017-11-29T07:17:42.510Z,2.97
2017-11-29T07:22:45.128Z,3.20
2017-11-29T07:27:48.475Z,2.20
2017-11-29T07:32:51.092Z,3.20
2017-11-29T07:37:53.863Z,2.73
2017-11-29T07:42:57.248Z,2.33
2017-11-29T07:48:01.459Z,3.37
2017-11-29T07:53:04.231Z,5.00
2017-11-29T07:58:06.930Z,11.30
2017-11-29T08:03:09.520Z,7.90
2017-11-29T08:08:12.111Z,6.07
2017-11-29T08:13:14.712Z,4.50
2017-11-29T08:18:17.300Z,7.20
2017-11-29T08:23:19.873Z,8.47
2017-11-29T08:28:22.496Z,7.30
2017-11-29T08:33:25.123Z,7.07
2017-11-29T08:38:27.728Z,9.60
2017-11-29T08:43:30.385Z,10.10
2017-11-29T08:48:33.020Z,9.07
2017-11-29T08:53:36.763Z,9.67
2017-11-29T08:58:40.216Z,6.93
2017-11-29T09:03:42.843Z,5.10
2017-11-29T09:08:45.537Z,9.37
2017-11-29T09:13:48.113Z,10.87
2017-11-29T09:18:50.686Z,8.93
2017-11-29T09:23:53.362Z,10.73
2017-11-29T09:28:55.971Z,9.33
2017-11-29T09:33:59.327Z,11.67
2017-11-29T09:39:02.035Z,16.40
2017-11-29T09:44:04.617Z,9.43
2017-11-29T09:49:07.203Z,9.77
2017-11-29T09:54:09.840Z,9.83
2017-11-29T09:59:13.205Z,6.90
2017-11-29T10:04:15.809Z,7.70
2017-11-29T10:09:18.564Z,6.00
2017-11-29T10:14:21.145Z,8.10
2017-11-29T10:19:24.516Z,5.80
2017-11-29T10:24:27.277Z,7.43
2017-11-29T10:29:29.855Z,5.37
2017-11-29T10:34:33.206Z,5.07
2017-11-29T10:39:35.863Z,4.63
2017-11-29T10:44:38.485Z,4.70
2017-11-29T10:49:41.077Z,4.23
2017-11-29T10:54:43.663Z,5.90
2017-11-29T10:59:46.239Z,6.60
2017-11-29T11:04:49.574Z,4.60
2017-11-29T11:09:52.166Z,4.63
2017-11-29T11:14:54.893Z,9.87
2017-11-29T11:19:57.500Z,5.10
2017-11-29T11:25:00.530Z,5.43
2017-11-29T11:30:03.154Z,9.40
2017-11-29T11:35:05.855Z,4.03
2017-11-29T11:40:08.775Z,31.37
2017-11-29T11:45:11.426Z,5.43
2017-11-29T11:50:14.020Z,3.93
2017-11-29T11:55:16.621Z,3.00
2017-11-29T12:00:20.021Z,6.37
2017-11-29T12:05:23.417Z,6.73
2017-11-29T12:10:26.002Z,6.90
2017-11-29T12:15:28.615Z,3.10
2017-11-29T12:20:31.208Z,11.47
2017-11-29T12:25:34.588Z,3.33
2017-11-29T12:30:37.202Z,3.47
2017-11-29T12:35:39.798Z,4.43
2017-11-29T12:40:42.391Z,1.93
2017-11-29T12:45:45.042Z,2.37
2017-11-29T12:50:59.585Z,2.60
2017-11-29T12:56:02.255Z,5.90
2017-11-29T13:01:04.881Z,5.73
2017-11-29T13:06:08.074Z,2.60
2017-11-29T13:11:10.673Z,3.87
2017-11-29T13:16:13.288Z,5.73
2017-11-29T13:21:16.017Z,7.90
2017-11-29T13:26:18.612Z,4.83
2017-11-29T13:31:21.227Z,5.53
2017-11-29T13:36:23.799Z,3.53
2017-11-29T13:41:26.593Z,2.00
2017-11-29T13:46:29.246Z,4.37
2017-11-29T13:51:31.839Z,2.03
2017-11-29T13:56:34.421Z,3.90
2017-11-29T14:01:37.653Z,2.57
2017-11-29T14:06:40.271Z,3.10
2017-11-29T14:11:43.014Z,3.90
2017-11-29T14:16:45.621Z,2.60
2017-11-29T14:21:48.224Z,5.27
2017-11-29T14:26:55.233Z,2.20
2017-11-29T14:31:57.835Z,3.50
2017-11-29T14:37:02.631Z,2.53
2017-11-29T14:42:05.323Z,3.60
2017-11-29T14:47:07.998Z,1.37
2017-11-29T14:52:10.583Z,2.50
2017-11-29T14:57:13.944Z,2.90
2017-11-29T15:02:16.561Z,2.10
2017-11-29T15:07:19.213Z,3.70
2017-11-29T15:12:23.422Z,3.40
2017-11-29T15:17:26.021Z,1.77
2017-11-29T15:22:29.000Z,1.63
2017-11-29T15:27:31.592Z,2.07
2017-11-29T15:32:34.186Z,1.30
2017-11-29T15:37:36.765Z,2.03
2017-11-29T15:42:43.093Z,2.03
2017-11-29T15:47:46.504Z,1.77
2017-11-29T15:52:49.124Z,4.33
2017-11-29T15:57:51.863Z,1.67
2017-11-29T16:02:55.153Z,4.03
2017-11-29T16:07:57.738Z,2.00
2017-11-29T16:13:00.318Z,3.50
2017-11-29T16:18:02.957Z,1.93
2017-11-29T16:23:05.937Z,2.50
2017-11-29T16:28:08.840Z,6.03
2017-11-29T16:33:11.496Z,2.40
2017-11-29T16:38:14.084Z,1.70
2017-11-29T16:43:16.696Z,2.40
2017-11-29T16:48:19.333Z,1.90
2017-11-29T16:53:21.940Z,2.57
2017-11-29T16:58:24.572Z,1.70
2017-11-29T17:03:27.952Z,3.13
2017-11-29T17:08:30.585Z,2.17
2017-11-29T17:13:34.674Z,2.80
2017-11-29T17:18:37.312Z,1.60
2017-11-29T17:23:39.943Z,4.27
2017-11-29T17:28:43.740Z,5.17
2017-11-29T17:33:46.323Z,4.63
2017-11-29T17:38:48.896Z,2.03
2017-11-29T17:43:51.469Z,4.57
2017-11-29T17:48:54.100Z,3.37
2017-11-29T17:53:59.697Z,5.10
2017-11-29T17:59:02.325Z,3.30
2017-11-29T18:04:04.936Z,4.00
2017-11-29T18:09:07.534Z,3.00
2017-11-29T18:14:10.981Z,3.00
2017-11-29T18:19:13.744Z,2.87
2017-11-29T18:24:16.366Z,4.00
2017-11-29T18:29:19.005Z,2.87
2017-11-29T18:34:21.636Z,5.23
2017-11-29T18:39:24.454Z,4.67
2017-11-29T18:44:27.897Z,3.37
2017-11-29T18:49:31.276Z,4.40
2017-11-29T18:54:34.099Z,6.13
2017-11-29T18:59:36.749Z,3.93
2017-11-29T19:04:39.511Z,4.20
2017-11-29T19:09:42.967Z,4.17
2017-11-29T19:14:46.534Z,5.47
2017-11-29T19:19:50.092Z,4.93
2017-11-29T19:24:53.675Z,5.43
2017-11-29T19:29:56.419Z,6.07
2017-11-29T19:34:59.197Z,4.93
2017-11-29T19:40:01.976Z,4.13
2017-11-29T19:45:06.366Z,6.87
2017-11-29T19:50:09.825Z,5.80
2017-11-29T19:55:12.726Z,8.77
2017-11-29T20:00:15.951Z,9.77
2017-11-29T20:05:20.188Z,9.03
2017-11-29T20:10:23.655Z,7.13
2017-11-29T20:15:27.253Z,9.30
2017-11-29T20:20:33.533Z,9.90
2017-11-29T20:25:36.316Z,10.03
2017-11-29T20:30:39.871Z,10.63
2017-11-29T20:35:43.918Z,12.13
2017-11-29T20:40:47.482Z,11.93
2017-11-29T20:45:50.841Z,12.07
2017-11-29T20:50:53.587Z,11.90
2017-11-29T20:55:56.311Z,29.13
2017-11-29T21:00:58.956Z,54.10
2017-11-29T21:06:02.494Z,52.10
2017-11-29T21:11:07.115Z,58.87
2017-11-29T21:16:10.347Z,71.60
2017-11-29T21:21:13.554Z,57.70
2017-11-29T21:26:16.367Z,45.60
2017-11-29T21:31:19.784Z,39.23
2017-11-29T21:36:25.332Z,46.27
2017-11-29T21:41:28.297Z,45.13
2017-11-29T21:46:31.016Z,42.87
2017-11-29T21:51:34.655Z,37.43
2017-11-29T21:56:37.294Z,39.30
2017-11-29T22:01:40.455Z,41.60
2017-11-29T22:06:43.906Z,34.63
2017-11-29T22:11:47.080Z,32.30
2017-11-29T22:16:51.213Z,38.80
2017-11-29T22:21:53.826Z,32.73
2017-11-29T22:26:57.717Z,36.33
2017-11-29T22:32:01.268Z,26.60
2017-11-29T22:37:04.250Z,25.73
2017-11-29T22:42:06.824Z,31.20
2017-11-29T22:47:10.935Z,25.80
2017-11-29T22:52:13.525Z,24.20
2017-11-29T22:57:16.126Z,21.60
2017-11-29T23:02:18.969Z,23.00
2017-11-29T23:07:21.620Z,26.17
2017-11-29T23:12:25.282Z,22.17
2017-11-29T23:17:28.326Z,16.40
2017-11-29T23:22:31.755Z,18.23
2017-11-29T23:27:34.339Z,22.27
2017-11-29T23:32:37.300Z,15.40
2017-11-29T23:37:40.139Z,14.57
2017-11-29T23:42:43.029Z,15.43
2017-11-29T23:47:46.519Z,19.60
2017-11-29T23:52:50.237Z,13.30
2017-11-29T23:57:53.357Z,13.13
